Time;durP1;ratioP1;P1;durP2;ratioP2;P2;SDS_P1;SDS_P2;PMS_P1;PMS_P2;Temp;Humidity;BMP_temperature;BMP_pressure;BME280_temperature;BME280_humidity;BME280_pressure;Samples;Min_cycle;Max_cycle;Signal;HPM_P1;HPM_P2
2022/03/29 00:02:17;;;;;;;;;66.25;52.50;;;;;;;;5031460;28;29578;-91
2022/03/29 00:04:42;;;;;;;;;65.00;52.25;;;;;;;;5031466;28;29708;-91
2022/03/29 00:07:07;;;;;;;;;65.50;51.75;;;;;;;;5031860;28;28275;-91
2022/03/29 00:09:32;;;;;;;;;68.67;53.67;;;;;;;;5031815;28;28634;-91
2022/03/29 00:11:58;;;;;;;;;64.50;50.75;;;;;;;;5049156;28;28481;-89
2022/03/29 00:14:23;;;;;;;;;68.00;53.75;;;;;;;;5049183;28;27976;-90
2022/03/29 00:16:48;;;;;;;;;69.00;55.00;;;;;;;;5049230;28;28250;-89
2022/03/29 00:19:13;;;;;;;;;66.50;51.00;;;;;;;;5049470;28;28511;-92
2022/03/29 00:21:39;;;;;;;;;64.75;51.25;;;;;;;;5030890;28;30619;-90
2022/03/29 00:24:04;;;;;;;;;68.50;55.75;;;;;;;;5049378;28;28376;-91
2022/03/29 00:26:30;;;;;;;;;64.50;52.25;;;;;;;;5031577;28;28795;-90
2022/03/29 00:28:55;;;;;;;;;69.25;56.75;;;;;;;;5031338;28;28324;-92
2022/03/29 00:31:20;;;;;;;;;67.50;54.25;;;;;;;;5029826;28;29754;-92
2022/03/29 00:33:46;;;;;;;;;70.25;57.25;;;;;;;;5031590;28;28729;-90
2022/03/29 00:36:12;;;;;;;;;70.50;56.25;;;;;;;;5048842;28;28499;-90
2022/03/29 00:38:37;;;;;;;;;70.00;54.50;;;;;;;;5031311;28;28505;-91
2022/03/29 00:41:03;;;;;;;;;67.00;57.00;;;;;;;;5048865;28;28845;-91
2022/03/29 00:43:28;;;;;;;;;67.00;53.75;;;;;;;;5031222;28;28457;-91
2022/03/29 00:45:53;;;;;;;;;67.50;54.50;;;;;;;;5049056;28;28537;-91
2022/03/29 00:48:19;;;;;;;;;70.00;57.67;;;;;;;;5031483;28;28555;-91
2022/03/29 00:50:45;;;;;;;;;67.50;55.00;;;;;;;;5031074;28;29953;-92
2022/03/29 00:53:10;;;;;;;;;71.00;56.25;;;;;;;;5048355;28;28382;-91
2022/03/29 00:55:36;;;;;;;;;66.25;53.00;;;;;;;;5031269;28;28201;-90
2022/03/29 00:58:04;;;;;;;;;67.00;52.00;;;;;;;;5048834;28;28318;-90
2022/03/29 01:00:33;;;;;;;;;73.00;63.40;;;;;;;;5048047;28;28312;-92
2022/03/29 01:03:01;;;;;;;;;67.00;55.00;;;;;;;;5048806;28;28308;-90
2022/03/29 01:05:27;;;;;;;;;68.00;55.50;;;;;;;;5048714;28;28267;-90
2022/03/29 01:07:55;;;;;;;;;73.00;62.67;;;;;;;;5047919;28;28600;-89
2022/03/29 01:10:21;;;;;;;;;66.00;53.80;;;;;;;;5048333;28;28336;-90
2022/03/29 01:12:46;;;;;;;;;72.33;59.67;;;;;;;;5048401;28;28755;-89
2022/03/29 01:15:12;;;;;;;;;69.00;57.00;;;;;;;;5047964;28;28473;-90
2022/03/29 01:17:41;;;;;;;;;71.20;56.60;;;;;;;;5030178;28;28667;-90
2022/03/29 01:20:06;;;;;;;;;70.75;57.75;;;;;;;;5048439;28;28470;-90
2022/03/29 01:22:35;;;;;;;;;70.25;56.50;;;;;;;;5029055;28;28249;-91
2022/03/29 01:25:00;;;;;;;;;71.00;55.50;;;;;;;;5026490;28;28498;-86
2022/03/29 01:27:28;;;;;;;;;67.00;53.00;;;;;;;;5047780;28;28257;-87
2022/03/29 01:29:57;;;;;;;;;70.40;58.80;;;;;;;;5047706;28;28488;-87
2022/03/29 01:32:24;;;;;;;;;69.75;54.50;;;;;;;;5029371;28;29318;-87
2022/03/29 01:34:49;;;;;;;;;69.25;57.25;;;;;;;;5048096;28;28601;-87
2022/03/29 01:37:14;;;;;;;;;68.50;56.50;;;;;;;;5048237;28;28309;-87
2022/03/29 01:39:40;;;;;;;;;70.00;59.33;;;;;;;;5029773;28;30235;-87
2022/03/29 01:42:05;;;;;;;;;68.67;53.33;;;;;;;;5029854;28;28452;-87
2022/03/29 01:44:30;;;;;;;;;70.00;56.25;;;;;;;;5050281;28;28365;-87
2022/03/29 01:46:55;;;;;;;;;69.25;56.00;;;;;;;;5051570;28;28311;-88
2022/03/29 01:49:21;;;;;;;;;69.00;56.33;;;;;;;;5051281;28;29612;-87
2022/03/29 01:51:46;;;;;;;;;68.67;56.00;;;;;;;;5051430;28;28211;-87
2022/03/29 01:54:11;;;;;;;;;71.00;57.67;;;;;;;;5051501;28;28310;-87
2022/03/29 01:56:37;;;;;;;;;64.00;51.67;;;;;;;;5051364;28;28527;-87
2022/03/29 01:59:06;;;;;;;;;68.25;57.00;;;;;;;;5050918;28;28451;-87
2022/03/29 02:01:38;;;;;;;;;71.50;56.75;;;;;;;;5050876;28;28482;-87
2022/03/29 02:04:03;;;;;;;;;67.00;55.00;;;;;;;;5051155;28;28403;-86
2022/03/29 02:06:28;;;;;;;;;68.67;57.33;;;;;;;;5051280;28;28336;-87
2022/03/29 02:08:56;;;;;;;;;66.75;51.50;;;;;;;;5050531;28;28467;-88
2022/03/29 02:11:21;;;;;;;;;66.60;53.60;;;;;;;;5051232;28;28448;-87
2022/03/29 02:13:47;;;;;;;;;66.00;54.00;;;;;;;;5050950;28;28282;-86
2022/03/29 02:16:12;;;;;;;;;70.00;54.67;;;;;;;;5050884;28;28473;-87
2022/03/29 02:18:37;;;;;;;;;68.50;54.75;;;;;;;;5050545;28;28606;-87
2022/03/29 02:21:02;;;;;;;;;75.67;61.67;;;;;;;;5050755;28;28384;-87
2022/03/29 02:23:28;;;;;;;;;69.33;56.33;;;;;;;;5051031;28;28312;-87
2022/03/29 02:25:53;;;;;;;;;69.00;55.00;;;;;;;;5050847;28;28408;-87
2022/03/29 02:28:18;;;;;;;;;69.67;59.67;;;;;;;;5050827;28;28331;-87
2022/03/29 02:30:43;;;;;;;;;69.50;55.25;;;;;;;;5050558;28;28233;-87
2022/03/29 02:33:09;;;;;;;;;67.00;53.33;;;;;;;;5050274;28;28236;-88
2022/03/29 02:35:34;;;;;;;;;68.50;57.50;;;;;;;;5050902;28;28404;-88
2022/03/29 02:37:59;;;;;;;;;71.00;57.25;;;;;;;;5050477;28;29712;-87
2022/03/29 02:40:25;;;;;;;;;69.33;56.00;;;;;;;;5050520;28;28286;-88
2022/03/29 02:42:53;;;;;;;;;70.67;58.00;;;;;;;;5050603;28;28755;-88
2022/03/29 02:45:19;;;;;;;;;70.50;56.50;;;;;;;;5050681;28;28338;-87
2022/03/29 02:47:49;;;;;;;;;64.00;51.25;;;;;;;;5049909;28;28736;-88
2022/03/29 02:50:15;;;;;;;;;73.00;59.00;;;;;;;;5050414;28;28417;-87
2022/03/29 02:52:43;;;;;;;;;70.40;55.00;;;;;;;;5050546;28;27783;-88
2022/03/29 02:55:09;;;;;;;;;71.00;57.80;;;;;;;;5031637;28;28392;-88
2022/03/29 02:57:34;;;;;;;;;70.33;58.00;;;;;;;;5050277;28;28384;-88
2022/03/29 02:59:59;;;;;;;;;71.67;60.67;;;;;;;;5049963;28;28321;-88
2022/03/29 03:02:24;;;;;;;;;68.67;58.67;;;;;;;;5050251;28;28513;-88
2022/03/29 03:04:50;;;;;;;;;68.67;54.67;;;;;;;;5050482;28;27790;-89
2022/03/29 03:07:15;;;;;;;;;66.50;55.25;;;;;;;;5049604;28;28629;-87
2022/03/29 03:09:40;;;;;;;;;67.00;55.25;;;;;;;;5050123;28;28451;-88
2022/03/29 03:12:05;;;;;;;;;71.25;57.00;;;;;;;;5050149;28;28525;-88
2022/03/29 03:14:31;;;;;;;;;68.00;55.50;;;;;;;;5050298;28;28420;-88
2022/03/29 03:16:56;;;;;;;;;69.67;57.33;;;;;;;;5049748;28;29809;-87
2022/03/29 03:19:22;;;;;;;;;70.00;56.00;;;;;;;;5049991;28;28305;-87
2022/03/29 03:21:47;;;;;;;;;69.50;56.50;;;;;;;;5028497;28;28416;-87
2022/03/29 03:24:13;;;;;;;;;65.33;53.67;;;;;;;;5043704;28;28541;-87
2022/03/29 03:26:38;;;;;;;;;70.50;55.00;;;;;;;;5015828;28;30280;-88
2022/03/29 03:29:04;;;;;;;;;69.00;54.00;;;;;;;;5029968;28;28622;-87
2022/03/29 03:31:29;;;;;;;;;68.00;53.00;;;;;;;;5029750;28;28165;-87
2022/03/29 03:33:54;;;;;;;;;67.00;53.00;;;;;;;;5030185;28;28503;-87
2022/03/29 03:36:19;;;;;;;;;68.75;54.00;;;;;;;;5041501;28;29167;-88
2022/03/29 03:38:45;;;;;;;;;66.33;53.00;;;;;;;;5049691;28;28615;-88
2022/03/29 03:41:10;;;;;;;;;69.00;52.75;;;;;;;;5049465;28;28403;-87
2022/03/29 03:43:35;;;;;;;;;65.75;54.25;;;;;;;;5049850;28;28323;-88
2022/03/29 03:46:00;;;;;;;;;70.00;58.00;;;;;;;;5049525;28;28413;-88
2022/03/29 03:48:26;;;;;;;;;66.00;52.50;;;;;;;;5049358;28;28773;-88
2022/03/29 03:50:51;;;;;;;;;64.25;52.00;;;;;;;;5049271;28;28389;-88
2022/03/29 03:53:16;;;;;;;;;69.00;56.25;;;;;;;;5049694;28;28320;-88
2022/03/29 03:55:41;;;;;;;;;68.33;54.67;;;;;;;;5049701;28;28741;-87
2022/03/29 03:58:07;;;;;;;;;65.50;52.75;;;;;;;;5049213;28;28558;-87
2022/03/29 04:00:32;;;;;;;;;67.00;52.33;;;;;;;;5048674;28;28378;-88
2022/03/29 04:02:59;;;;;;;;;69.33;54.00;;;;;;;;5049151;28;28757;-87
2022/03/29 04:05:26;;;;;;;;;69.25;56.00;;;;;;;;5030320;28;29604;-87
2022/03/29 04:07:51;;;;;;;;;68.00;57.00;;;;;;;;5048526;28;28438;-88
2022/03/29 04:10:16;;;;;;;;;68.33;57.33;;;;;;;;5031217;28;28281;-88
2022/03/29 04:12:42;;;;;;;;;70.33;56.00;;;;;;;;5049060;28;28284;-90
2022/03/29 04:15:08;;;;;;;;;67.00;56.00;;;;;;;;5049000;28;28344;-88
2022/03/29 04:17:34;;;;;;;;;68.60;53.40;;;;;;;;5048859;28;28336;-89
2022/03/29 04:20:00;;;;;;;;;71.00;60.60;;;;;;;;5049154;28;28510;-88
2022/03/29 04:22:25;;;;;;;;;67.33;55.67;;;;;;;;5049116;28;28474;-88
2022/03/29 04:24:50;;;;;;;;;67.67;55.00;;;;;;;;5049071;28;28518;-88
2022/03/29 04:27:15;;;;;;;;;65.33;54.00;;;;;;;;5048369;28;28386;-88
2022/03/29 04:29:41;;;;;;;;;67.00;54.67;;;;;;;;5048815;28;28320;-86
2022/03/29 04:32:06;;;;;;;;;69.67;55.33;;;;;;;;5049137;28;28446;-89
2022/03/29 04:34:32;;;;;;;;;68.00;54.00;;;;;;;;5048815;28;28425;-88
2022/03/29 04:36:59;;;;;;;;;64.00;52.75;;;;;;;;5030916;28;28886;-88
2022/03/29 04:39:24;;;;;;;;;65.50;52.00;;;;;;;;5048464;28;28453;-88
2022/03/29 04:41:49;;;;;;;;;69.75;53.25;;;;;;;;5030803;28;28462;-88
2022/03/29 04:44:14;;;;;;;;;71.50;56.00;;;;;;;;5048678;28;28486;-88
2022/03/29 04:46:40;;;;;;;;;69.67;57.00;;;;;;;;5029926;28;28574;-89
2022/03/29 04:49:05;;;;;;;;;69.50;55.50;;;;;;;;5030399;28;28438;-87
2022/03/29 04:51:33;;;;;;;;;69.00;54.00;;;;;;;;5030516;28;28432;-87
2022/03/29 04:53:58;;;;;;;;;68.75;53.75;;;;;;;;5047972;28;28489;-87
2022/03/29 04:56:23;;;;;;;;;67.75;52.50;;;;;;;;5048886;28;28400;-88
2022/03/29 04:58:49;;;;;;;;;68.75;54.75;;;;;;;;5048641;28;28475;-90
2022/03/29 05:01:14;;;;;;;;;72.50;60.00;;;;;;;;5048430;28;28305;-87
2022/03/29 05:03:40;;;;;;;;;66.75;53.75;;;;;;;;5030083;28;30261;-89
2022/03/29 05:06:05;;;;;;;;;70.25;55.00;;;;;;;;5030733;28;28918;-87
2022/03/29 05:08:30;;;;;;;;;66.00;52.75;;;;;;;;5048463;28;28277;-84
2022/03/29 05:10:56;;;;;;;;;69.33;56.67;;;;;;;;5048085;28;28329;-87
2022/03/29 05:13:21;;;;;;;;;64.25;52.25;;;;;;;;5047783;28;29094;-87
2022/03/29 05:15:46;;;;;;;;;67.25;53.00;;;;;;;;5048159;28;28398;-83
2022/03/29 05:18:12;;;;;;;;;63.67;51.33;;;;;;;;5047773;28;28452;-89
2022/03/29 05:20:37;;;;;;;;;61.75;50.00;;;;;;;;5048373;28;28435;-86
2022/03/29 05:23:06;;;;;;;;;65.25;52.25;;;;;;;;5047954;28;29794;-85
2022/03/29 05:25:32;;;;;;;;;65.75;53.00;;;;;;;;5047979;28;28426;-86
2022/03/29 05:27:58;;;;;;;;;69.50;55.00;;;;;;;;5047701;28;28526;-85
2022/03/29 05:30:23;;;;;;;;;68.75;56.00;;;;;;;;5046996;28;28677;-86
2022/03/29 05:32:51;;;;;;;;;66.75;52.25;;;;;;;;5047780;28;28468;-87
2022/03/29 05:35:16;;;;;;;;;66.75;52.75;;;;;;;;5048059;28;28515;-86
2022/03/29 05:37:41;;;;;;;;;66.75;53.75;;;;;;;;5047571;28;28137;-86
2022/03/29 05:40:08;;;;;;;;;69.50;54.75;;;;;;;;5047985;28;28391;-87
2022/03/29 05:42:40;;;;;;;;;67.75;53.00;;;;;;;;5047616;28;28525;-87
2022/03/29 05:45:06;;;;;;;;;69.20;57.00;;;;;;;;5047618;28;28298;-87
2022/03/29 05:50:15;;;;;;;;;67.75;51.75;;;;;;;;5047007;28;28310;-86
2022/03/29 05:52:40;;;;;;;;;68.00;54.00;;;;;;;;5047242;28;28684;-87
2022/03/29 05:55:06;;;;;;;;;70.33;56.67;;;;;;;;5047823;28;28447;-88
2022/03/29 05:57:31;;;;;;;;;67.25;52.50;;;;;;;;5047814;28;28352;-86
2022/03/29 05:59:56;;;;;;;;;63.67;51.33;;;;;;;;5047967;28;28935;-88
2022/03/29 06:02:24;;;;;;;;;69.00;54.00;;;;;;;;5046999;28;28380;-87
2022/03/29 06:04:50;;;;;;;;;69.33;55.67;;;;;;;;5047574;28;28376;-87
2022/03/29 06:07:15;;;;;;;;;67.00;54.00;;;;;;;;5047707;28;29103;-87
2022/03/29 06:09:40;;;;;;;;;69.25;53.25;;;;;;;;5047680;28;28238;-87
2022/03/29 06:12:05;;;;;;;;;67.67;55.00;;;;;;;;5047235;28;28557;-87
2022/03/29 06:14:31;;;;;;;;;67.00;52.75;;;;;;;;5047388;28;28474;-87
2022/03/29 06:16:57;;;;;;;;;68.50;55.75;;;;;;;;5047707;28;28815;-87
2022/03/29 06:19:22;;;;;;;;;69.75;57.00;;;;;;;;5047491;28;28326;-87
2022/03/29 06:21:47;;;;;;;;;66.00;54.33;;;;;;;;5047159;28;28329;-87
2022/03/29 06:24:13;;;;;;;;;67.50;55.25;;;;;;;;5047650;28;28336;-87
2022/03/29 06:26:41;;;;;;;;;66.00;52.67;;;;;;;;5047007;28;28245;-87
2022/03/29 06:29:07;;;;;;;;;69.33;53.67;;;;;;;;5048298;28;28871;-87
2022/03/29 06:31:32;;;;;;;;;67.25;54.25;;;;;;;;5032792;28;29584;-87
2022/03/29 06:33:57;;;;;;;;;67.00;52.75;;;;;;;;5049836;28;28380;-86
2022/03/29 06:36:23;;;;;;;;;66.33;52.00;;;;;;;;5051036;28;28411;-87
2022/03/29 06:38:49;;;;;;;;;66.67;53.67;;;;;;;;5050165;28;28495;-86
2022/03/29 06:41:14;;;;;;;;;69.75;56.50;;;;;;;;5050400;28;28751;-87
2022/03/29 06:43:40;;;;;;;;;69.00;56.00;;;;;;;;5050511;28;28483;-87
2022/03/29 06:46:08;;;;;;;;;67.75;53.25;;;;;;;;5050576;28;28307;-87
2022/03/29 06:48:33;;;;;;;;;67.00;53.25;;;;;;;;5049947;28;28305;-87
2022/03/29 06:50:58;;;;;;;;;69.00;56.00;;;;;;;;5050089;28;29295;-87
2022/03/29 06:53:24;;;;;;;;;68.25;55.50;;;;;;;;5031651;28;29460;-86
2022/03/29 06:55:50;;;;;;;;;70.75;58.75;;;;;;;;5050399;28;28363;-87
2022/03/29 06:58:15;;;;;;;;;65.80;54.60;;;;;;;;5049500;28;29752;-86
2022/03/29 07:00:40;;;;;;;;;66.75;52.00;;;;;;;;5049931;28;28488;-86
2022/03/29 07:03:06;;;;;;;;;66.33;51.67;;;;;;;;5050217;28;28854;-87
2022/03/29 07:05:31;;;;;;;;;66.00;52.00;;;;;;;;5050217;28;28301;-86
2022/03/29 07:07:56;;;;;;;;;67.00;54.67;;;;;;;;5049595;28;28321;-87
2022/03/29 07:13:05;;;;;;;;;64.50;50.75;;;;;;;;5049457;28;28265;-87
2022/03/29 07:15:30;;;;;;;;;68.33;54.67;;;;;;;;5050195;28;28316;-86
2022/03/29 07:17:56;;;;;;;;;64.75;53.00;;;;;;;;5050703;28;28313;-91
2022/03/29 07:20:21;;;;;;;;;67.50;53.25;;;;;;;;5033235;28;29941;-91
2022/03/29 07:22:47;;;;;;;;;63.00;51.00;;;;;;;;5032412;28;28607;-91
2022/03/29 07:25:13;;;;;;;;;64.00;51.00;;;;;;;;5033822;28;28689;-91
2022/03/29 07:27:39;;;;;;;;;62.67;50.00;;;;;;;;5032822;28;28392;-90
2022/03/29 07:30:05;;;;;;;;;66.00;51.00;;;;;;;;5049793;28;28499;-89
2022/03/29 07:32:30;;;;;;;;;60.00;49.25;;;;;;;;5032096;28;28509;-90
2022/03/29 07:34:56;;;;;;;;;63.50;50.25;;;;;;;;5050174;28;28336;-90
2022/03/29 07:37:21;;;;;;;;;58.50;48.00;;;;;;;;5032596;28;28560;-91
2022/03/29 07:39:47;;;;;;;;;61.25;50.00;;;;;;;;5051100;28;28542;-91
2022/03/29 07:42:12;;;;;;;;;63.75;51.00;;;;;;;;5049888;28;28402;-91
2022/03/29 07:44:37;;;;;;;;;61.67;48.67;;;;;;;;5050100;28;28467;-91
2022/03/29 07:47:03;;;;;;;;;60.67;48.00;;;;;;;;5032177;28;27927;-90
2022/03/29 07:49:29;;;;;;;;;57.75;46.50;;;;;;;;5032119;28;30042;-93
2022/03/29 07:51:55;;;;;;;;;62.25;49.00;;;;;;;;5033096;28;28759;-84
2022/03/29 07:54:20;;;;;;;;;58.50;48.50;;;;;;;;5049851;28;28514;-91
2022/03/29 07:56:45;;;;;;;;;60.50;48.75;;;;;;;;5049846;28;28404;-86
2022/03/29 07:59:10;;;;;;;;;60.67;48.33;;;;;;;;5049490;28;28424;-87
2022/03/29 08:01:36;;;;;;;;;59.67;47.67;;;;;;;;5049384;28;28503;-87
2022/03/29 08:04:02;;;;;;;;;60.75;47.75;;;;;;;;5049441;28;28293;-86
2022/03/29 08:06:27;;;;;;;;;55.75;45.50;;;;;;;;5049561;28;28547;-85
2022/03/29 08:08:53;;;;;;;;;61.00;48.67;;;;;;;;5049445;28;28265;-85
2022/03/29 08:11:19;;;;;;;;;59.25;46.50;;;;;;;;5048755;28;28460;-85
2022/03/29 08:13:45;;;;;;;;;60.00;47.67;;;;;;;;5049433;28;28914;-84
2022/03/29 08:16:11;;;;;;;;;59.00;46.75;;;;;;;;5049730;28;28475;-84
2022/03/29 08:18:38;;;;;;;;;60.00;48.00;;;;;;;;5049266;28;29264;-85
2022/03/29 08:21:47;;;;;;;;;61.60;48.40;;;;;;;;5049376;28;28571;-86
2022/03/29 08:23:48;;;;;;;;;61.40;48.40;;;;;;;;5049647;28;28270;-87
2022/03/29 08:26:13;;;;;;;;;60.67;49.00;;;;;;;;5048853;28;28249;-88
2022/03/29 08:28:39;;;;;;;;;58.00;47.00;;;;;;;;5050231;28;28412;-87
2022/03/29 08:31:04;;;;;;;;;61.33;48.67;;;;;;;;5048665;28;28297;-87
2022/03/29 08:33:30;;;;;;;;;58.00;48.25;;;;;;;;5047054;28;28388;-87
2022/03/29 08:35:57;;;;;;;;;61.00;48.00;;;;;;;;5031181;28;28424;-87
2022/03/29 08:38:22;;;;;;;;;58.00;45.00;;;;;;;;5030428;28;28478;-87
2022/03/29 08:40:47;;;;;;;;;59.25;47.50;;;;;;;;5048499;28;28336;-88
2022/03/29 08:43:15;;;;;;;;;59.50;48.00;;;;;;;;5048020;28;28419;-88
2022/03/29 08:45:43;;;;;;;;;58.75;45.50;;;;;;;;5043260;28;28483;-90
2022/03/29 08:48:08;;;;;;;;;54.50;44.75;;;;;;;;5041148;28;28567;-92
2022/03/29 08:50:36;;;;;;;;;58.00;46.25;;;;;;;;5019141;28;28506;-88
2022/03/29 08:53:01;;;;;;;;;57.60;46.00;;;;;;;;5027839;28;28450;-87
2022/03/29 08:55:27;;;;;;;;;60.50;46.00;;;;;;;;5034176;28;28534;-88
2022/03/29 08:57:55;;;;;;;;;57.00;46.20;;;;;;;;5047732;28;28672;-87
2022/03/29 09:00:21;;;;;;;;;56.00;45.50;;;;;;;;5045016;28;28445;-88
2022/03/29 09:02:46;;;;;;;;;60.00;47.25;;;;;;;;5037882;28;28431;-88
2022/03/29 09:05:15;;;;;;;;;54.67;45.33;;;;;;;;5038744;28;28491;-88
2022/03/29 09:08:01;;;;;;;;;59.60;46.60;;;;;;;;5044878;28;28453;-88
2022/03/29 09:10:44;;;;;;;;;60.25;47.75;;;;;;;;5048325;28;28577;-88
2022/03/29 09:13:20;;;;;;;;;63.67;50.00;;;;;;;;5048161;28;28554;-88
2022/03/29 09:15:47;;;;;;;;;56.25;46.50;;;;;;;;5048033;28;28270;-88
2022/03/29 09:18:12;;;;;;;;;58.25;46.50;;;;;;;;5047878;28;28534;-88
2022/03/29 09:20:37;;;;;;;;;56.00;45.67;;;;;;;;5048027;28;28400;-87
2022/03/29 09:23:03;;;;;;;;;56.00;46.00;;;;;;;;5047761;28;28491;-88
2022/03/29 09:25:36;;;;;;;;;59.40;46.00;;;;;;;;5048105;28;28364;-88
2022/03/29 09:28:02;;;;;;;;;61.40;46.80;;;;;;;;5029790;28;28506;-88
2022/03/29 09:30:38;;;;;;;;;56.75;46.75;;;;;;;;5047571;28;28494;-88
2022/03/29 09:33:05;;;;;;;;;55.00;44.00;;;;;;;;5029901;28;28455;-88
2022/03/29 09:35:32;;;;;;;;;54.00;44.75;;;;;;;;5029646;28;28516;-88
2022/03/29 09:37:58;;;;;;;;;57.75;46.00;;;;;;;;5050039;28;29298;-88
2022/03/29 09:40:38;;;;;;;;;54.25;44.50;;;;;;;;5049823;28;28369;-88
2022/03/29 09:43:06;;;;;;;;;53.25;43.50;;;;;;;;5067797;28;28507;-88
2022/03/29 09:45:41;;;;;;;;;55.60;44.60;;;;;;;;5050217;28;28474;-87
2022/03/29 09:48:23;;;;;;;;;53.50;42.50;;;;;;;;5051508;28;28741;-88
2022/03/29 09:50:52;;;;;;;;;54.75;43.00;;;;;;;;5039343;28;28594;-87
2022/03/29 09:53:34;;;;;;;;;51.50;43.25;;;;;;;;5047549;28;28265;-89
2022/03/29 09:55:59;;;;;;;;;53.75;45.00;;;;;;;;5029060;28;28550;-89
2022/03/29 09:58:24;;;;;;;;;55.67;43.00;;;;;;;;5046988;28;29190;-89
2022/03/29 10:00:49;;;;;;;;;56.00;46.00;;;;;;;;5047114;28;28517;-88
2022/03/29 10:03:17;;;;;;;;;51.00;42.33;;;;;;;;5047400;28;28431;-89
2022/03/29 10:05:42;;;;;;;;;56.00;44.25;;;;;;;;5050076;28;28526;-88
2022/03/29 10:10:58;;;;;;;;;51.50;43.25;;;;;;;;5057728;28;28541;-88
2022/03/29 10:13:23;;;;;;;;;53.00;42.75;;;;;;;;5071196;28;28532;-87
2022/03/29 10:15:49;;;;;;;;;52.25;43.25;;;;;;;;5047822;28;28514;-88
2022/03/29 10:18:15;;;;;;;;;54.50;43.00;;;;;;;;5049309;28;30021;-88
2022/03/29 10:20:41;;;;;;;;;49.75;41.50;;;;;;;;5050475;28;28500;-88
2022/03/29 10:23:06;;;;;;;;;55.25;45.50;;;;;;;;5050385;28;27887;-88
2022/03/29 10:25:32;;;;;;;;;54.50;44.00;;;;;;;;5029297;28;28471;-89
2022/03/29 10:27:58;;;;;;;;;50.60;41.40;;;;;;;;5019754;28;28523;-88
2022/03/29 10:30:33;;;;;;;;;50.00;41.20;;;;;;;;5030424;28;28554;-89
2022/03/29 10:33:16;;;;;;;;;52.25;42.50;;;;;;;;5013393;28;28370;-89
2022/03/29 10:36:01;;;;;;;;;54.75;44.25;;;;;;;;5049765;28;28452;-89
2022/03/29 10:38:45;;;;;;;;;52.00;42.50;;;;;;;;5032198;28;28493;-89
2022/03/29 10:41:28;;;;;;;;;51.25;42.75;;;;;;;;5045645;28;28544;-88
2022/03/29 10:44:01;;;;;;;;;53.00;43.50;;;;;;;;5070663;28;28451;-90
2022/03/29 10:46:41;;;;;;;;;55.60;45.80;;;;;;;;5035844;28;28690;-90
2022/03/29 10:49:22;;;;;;;;;54.20;44.60;;;;;;;;5050550;28;28387;-90
2022/03/29 10:51:48;;;;;;;;;56.00;46.00;;;;;;;;5049985;28;28543;-89
2022/03/29 10:54:27;;;;;;;;;55.00;44.75;;;;;;;;5032744;28;28474;-89
2022/03/29 10:56:55;;;;;;;;;53.80;43.40;;;;;;;;5052584;28;28261;-88
2022/03/29 10:59:21;;;;;;;;;61.00;48.25;;;;;;;;5070250;28;29288;-89
2022/03/29 11:02:05;;;;;;;;;55.25;44.00;;;;;;;;5062888;28;28460;-95
2022/03/29 11:04:30;;;;;;;;;53.00;42.40;;;;;;;;5036149;28;28333;-87
2022/03/29 11:07:05;;;;;;;;;55.75;44.25;;;;;;;;5050596;28;28451;-91
2022/03/29 11:09:31;;;;;;;;;55.75;45.25;;;;;;;;5050783;28;28538;-93
2022/03/29 11:11:56;;;;;;;;;54.25;44.00;;;;;;;;5050968;28;28475;-92
2022/03/29 11:14:27;;;;;;;;;56.50;46.25;;;;;;;;5050942;28;28051;-94
2022/03/29 11:17:12;;;;;;;;;56.00;45.00;;;;;;;;5054315;28;27796;-94
2022/03/29 11:19:46;;;;;;;;;55.00;45.25;;;;;;;;5023740;28;30820;-95
2022/03/29 11:22:29;;;;;;;;;53.00;43.50;;;;;;;;5036747;28;28619;-95
2022/03/29 11:24:56;;;;;;;;;54.00;43.50;;;;;;;;5037520;28;28597;-94
2022/03/29 11:27:22;;;;;;;;;52.75;43.50;;;;;;;;5037912;28;28459;-96
2022/03/29 11:29:48;;;;;;;;;61.00;48.75;;;;;;;;5038741;28;30271;-95
2022/03/29 11:32:17;;;;;;;;;61.00;48.00;;;;;;;;5020554;28;28872;-96
2022/03/29 11:34:42;;;;;;;;;54.40;44.60;;;;;;;;5021253;28;28455;-95
2022/03/29 11:37:08;;;;;;;;;56.25;46.00;;;;;;;;5036871;28;28562;-96
2022/03/29 11:39:33;;;;;;;;;58.67;44.67;;;;;;;;5037725;28;30169;-95
2022/03/29 11:41:58;;;;;;;;;59.75;47.00;;;;;;;;5037777;28;27832;-94
2022/03/29 11:44:25;;;;;;;;;55.75;44.00;;;;;;;;5037674;28;27801;-96
2022/03/29 11:46:55;;;;;;;;;51.00;43.00;;;;;;;;5038447;28;28537;-95
2022/03/29 11:49:22;;;;;;;;;56.00;44.25;;;;;;;;5021403;28;30124;-96
2022/03/29 11:52:04;;;;;;;;;55.80;44.80;;;;;;;;5041659;28;28849;-95
2022/03/29 11:54:30;;;;;;;;;56.40;45.40;;;;;;;;5043096;28;27805;-96
2022/03/29 11:56:55;;;;;;;;;62.00;47.00;;;;;;;;5038244;28;28534;-95
2022/03/29 11:59:20;;;;;;;;;57.33;46.00;;;;;;;;5037808;28;29748;-95
2022/03/29 12:01:45;;;;;;;;;55.00;45.00;;;;;;;;5037549;28;28717;-95
2022/03/29 12:04:11;;;;;;;;;57.00;47.00;;;;;;;;5038116;28;27904;-94
2022/03/29 12:06:47;;;;;;;;;61.75;48.25;;;;;;;;5037428;28;28065;-94
2022/03/29 12:09:16;;;;;;;;;59.00;46.00;;;;;;;;5037222;28;30438;-95
2022/03/29 12:11:44;;;;;;;;;55.75;45.00;;;;;;;;5037723;28;29102;-95
2022/03/29 12:14:11;;;;;;;;;53.00;43.00;;;;;;;;5037161;28;28317;-94
2022/03/29 12:16:38;;;;;;;;;60.50;47.00;;;;;;;;5021708;28;28626;-95
2022/03/29 12:19:11;;;;;;;;;56.00;45.50;;;;;;;;5037115;28;30368;-93
2022/03/29 12:21:37;;;;;;;;;51.00;44.00;;;;;;;;5036859;28;27847;-93
2022/03/29 12:24:06;;;;;;;;;49.25;39.25;;;;;;;;5037006;28;28338;-95
2022/03/29 12:26:32;;;;;;;;;46.80;39.00;;;;;;;;5037632;28;28353;-95
2022/03/29 12:28:59;;;;;;;;;46.20;39.00;;;;;;;;5037723;28;30960;-95
2022/03/29 12:31:27;;;;;;;;;46.00;38.25;;;;;;;;5039382;28;28734;-94
2022/03/29 12:33:53;;;;;;;;;52.00;43.20;;;;;;;;5035173;28;28534;-94
2022/03/29 12:36:19;;;;;;;;;45.80;39.00;;;;;;;;5030689;28;28600;-96
2022/03/29 12:38:51;;;;;;;;;58.00;43.33;;;;;;;;5039305;28;29720;-96
2022/03/29 12:41:34;;;;;;;;;49.25;41.50;;;;;;;;5037270;28;29742;-96
2022/03/29 12:44:00;;;;;;;;;48.00;38.25;;;;;;;;5037745;28;27706;-96
2022/03/29 12:46:26;;;;;;;;;45.20;37.00;;;;;;;;5037505;28;28298;-96
2022/03/29 12:48:51;;;;;;;;;41.25;36.00;;;;;;;;5037867;28;29944;-94
2022/03/29 12:51:17;;;;;;;;;39.75;35.00;;;;;;;;5041747;28;27868;-96
2022/03/29 12:54:03;;;;;;;;;44.00;34.75;;;;;;;;5022633;28;28153;-95
2022/03/29 12:56:44;;;;;;;;;42.25;35.25;;;;;;;;5020033;28;28140;-94
2022/03/29 12:59:28;;;;;;;;;33.00;31.60;;;;;;;;5016780;28;29900;-95
2022/03/29 13:02:01;;;;;;;;;30.25;28.50;;;;;;;;5021882;28;28935;-94
2022/03/29 13:04:56;;;;;;;;;31.75;29.50;;;;;;;;5051901;28;28470;-95
2022/03/29 13:07:41;;;;;;;;;26.80;25.20;;;;;;;;5010843;28;28448;-94
2022/03/29 13:10:16;;;;;;;;;28.50;27.25;;;;;;;;5002734;28;30435;-95
2022/03/29 13:12:48;;;;;;;;;28.75;28.75;;;;;;;;4975761;28;28636;-94
2022/03/29 13:15:32;;;;;;;;;35.80;32.00;;;;;;;;4975833;28;28414;-93
2022/03/29 13:17:57;;;;;;;;;37.25;32.00;;;;;;;;4977567;28;28516;-93
2022/03/29 13:20:25;;;;;;;;;61.67;49.33;;;;;;;;4992547;28;30786;-92
2022/03/29 13:22:51;;;;;;;;;62.00;49.20;;;;;;;;4969588;28;29677;-92
2022/03/29 13:25:30;;;;;;;;;53.00;43.50;;;;;;;;4994266;28;28547;-92
2022/03/29 13:27:55;;;;;;;;;44.80;38.20;;;;;;;;4994500;28;29144;-96
2022/03/29 13:30:21;;;;;;;;;38.67;33.00;;;;;;;;4999716;28;29843;-95
2022/03/29 13:32:46;;;;;;;;;40.75;34.50;;;;;;;;4983619;28;27817;-95
2022/03/29 13:35:11;;;;;;;;;45.25;37.25;;;;;;;;4984672;28;27998;-95
2022/03/29 13:37:37;;;;;;;;;47.00;36.33;;;;;;;;4978947;28;28350;-96
2022/03/29 13:40:03;;;;;;;;;42.00;36.50;;;;;;;;4989768;28;29887;-94
2022/03/29 13:42:28;;;;;;;;;45.00;36.00;;;;;;;;4980663;28;28773;-95
2022/03/29 13:50:18;;;;;;;;;45.80;38.80;;;;;;;;5027891;28;28385;-96
2022/03/29 13:55:19;;;;;;;;;44.80;38.20;;;;;;;;5489495;22;28259;-94
2022/03/29 13:57:48;;;;;;;;;44.00;37.33;;;;;;;;5052598;28;27914;-96
2022/03/29 14:00:15;;;;;;;;;44.40;37.40;;;;;;;;5057327;28;29816;-96
2022/03/29 14:02:41;;;;;;;;;44.75;38.00;;;;;;;;5058984;28;27765;-96
2022/03/29 14:57:34;;;;;;;;;62.50;50.00;;;;;;;;4183536;22;29093;-94
2022/03/29 15:00:00;;;;;;;;;63.80;52.00;;;;;;;;4996545;28;29305;-95
2022/03/29 15:12:45;;;;;;;;;58.00;46.50;;;;;;;;6022409;23;29064;-94
2022/03/29 15:15:10;;;;;;;;;59.67;48.33;;;;;;;;5016975;28;28497;-96
2022/03/29 15:17:36;;;;;;;;;57.00;45.75;;;;;;;;5016856;28;28249;-93
2022/03/29 15:20:01;;;;;;;;;63.00;48.25;;;;;;;;5001649;28;28265;-95
2022/03/29 15:22:27;;;;;;;;;61.00;45.33;;;;;;;;5001498;28;29835;-93
2022/03/29 15:24:53;;;;;;;;;60.75;49.25;;;;;;;;5004062;28;28982;-96
2022/03/29 15:27:19;;;;;;;;;57.75;47.25;;;;;;;;5010093;28;28318;-96
2022/03/29 15:29:45;;;;;;;;;59.00;47.20;;;;;;;;5010306;28;27925;-95
2022/03/29 15:32:10;;;;;;;;;55.25;45.75;;;;;;;;5002716;28;30027;-94
2022/03/29 15:34:38;;;;;;;;;60.00;48.00;;;;;;;;5000399;28;28353;-94
2022/03/29 15:37:05;;;;;;;;;61.50;49.00;;;;;;;;4996804;28;28348;-88